createdAt,value
2023-08-25T00:01:40.381Z,18.85
2023-08-25T00:04:07.265Z,18.84
2023-08-25T00:06:34.133Z,18.82
2023-08-25T00:09:00.937Z,18.80
2023-08-25T00:11:27.694Z,18.80
2023-08-25T00:13:54.607Z,18.74
2023-08-25T00:16:21.665Z,18.72
2023-08-25T00:18:48.965Z,18.92
2023-08-25T00:21:16.188Z,18.88
2023-08-25T00:23:43.129Z,18.81
2023-08-25T00:26:09.877Z,18.75
2023-08-25T00:28:36.644Z,18.84
2023-08-25T00:31:03.960Z,18.80
2023-08-25T00:33:30.939Z,18.81
2023-08-25T00:35:57.816Z,18.77
2023-08-25T00:38:29.745Z,18.71
2023-08-25T00:40:56.625Z,18.70
2023-08-25T00:43:23.576Z,18.67
2023-08-25T00:45:50.382Z,18.65
2023-08-25T00:48:17.685Z,18.63
2023-08-25T00:50:46.129Z,18.64
2023-08-25T00:53:13.981Z,18.60
2023-08-25T00:55:41.003Z,18.64
2023-08-25T00:58:09.126Z,18.64
2023-08-25T01:00:36.978Z,18.63
2023-08-25T01:03:04.405Z,18.65
2023-08-25T01:05:31.369Z,18.61
2023-08-25T01:07:58.781Z,18.63
2023-08-25T01:10:40.752Z,18.61
2023-08-25T01:13:14.484Z,18.60
2023-08-25T01:15:46.602Z,18.57
2023-08-25T01:18:19.116Z,18.55
2023-08-25T01:20:49.687Z,18.58
2023-08-25T01:23:48.450Z,18.61
2023-08-25T01:26:16.323Z,18.57
2023-08-25T01:28:43.262Z,18.55
2023-08-25T01:31:11.290Z,18.58
2023-08-25T01:33:40.787Z,18.57
2023-08-25T01:36:35.066Z,18.60
2023-08-25T01:39:08.289Z,18.55
2023-08-25T01:41:44.717Z,18.64
2023-08-25T01:44:14.228Z,18.63
2023-08-25T01:46:45.079Z,18.54
2023-08-25T01:49:15.472Z,18.51
2023-08-25T01:51:43.235Z,18.61
2023-08-25T01:54:10.673Z,18.57
2023-08-25T01:56:37.672Z,18.52
2023-08-25T01:59:04.524Z,18.44
2023-08-25T02:01:33.205Z,18.47
2023-08-25T02:04:00.049Z,18.38
2023-08-25T02:06:26.852Z,18.43
2023-08-25T02:08:53.647Z,18.43
2023-08-25T02:11:20.762Z,18.31
2023-08-25T02:13:47.583Z,18.33
2023-08-25T02:16:14.457Z,18.30
2023-08-25T02:18:42.356Z,18.36
2023-08-25T02:21:09.249Z,18.31
2023-08-25T02:23:36.130Z,18.29
2023-08-25T02:26:03.609Z,18.27
2023-08-25T02:28:30.358Z,18.33
2023-08-25T02:30:57.437Z,18.29
2023-08-25T02:33:24.318Z,18.26
2023-08-25T02:35:51.820Z,18.26
2023-08-25T02:38:18.674Z,18.29
2023-08-25T02:40:45.426Z,18.30
2023-08-25T02:43:12.469Z,18.27
2023-08-25T02:45:39.617Z,18.29
2023-08-25T02:48:07.007Z,18.30
2023-08-25T02:50:34.782Z,18.33
2023-08-25T02:53:01.640Z,18.34
2023-08-25T02:55:28.406Z,18.33
2023-08-25T02:57:55.605Z,18.33
2023-08-25T03:00:25.118Z,18.31
2023-08-25T03:02:52.835Z,18.30
2023-08-25T03:05:20.169Z,18.36
2023-08-25T03:07:46.967Z,18.37
2023-08-25T03:10:13.723Z,18.36
2023-08-25T03:12:41.166Z,18.33
2023-08-25T03:15:08.832Z,18.36
2023-08-25T03:17:35.970Z,18.36
2023-08-25T03:20:04.066Z,18.37
2023-08-25T03:22:31.042Z,18.41
2023-08-25T03:24:57.753Z,18.41
2023-08-25T03:27:24.510Z,18.38
2023-08-25T03:29:51.301Z,18.38
2023-08-25T03:32:18.094Z,18.44
2023-08-25T03:34:44.915Z,18.38
2023-08-25T03:37:13.039Z,18.41
2023-08-25T03:39:39.975Z,18.34
2023-08-25T03:42:07.242Z,18.33
2023-08-25T03:44:34.113Z,18.27
2023-08-25T03:47:01.048Z,18.30
2023-08-25T03:49:31.197Z,18.29
2023-08-25T03:51:59.790Z,18.23
2023-08-25T03:54:29.328Z,18.27
2023-08-25T03:56:56.179Z,18.20
2023-08-25T03:59:22.958Z,18.21
2023-08-25T04:01:50.291Z,18.26
2023-08-25T04:04:17.169Z,18.24
2023-08-25T04:06:43.931Z,18.23
2023-08-25T04:09:10.785Z,18.20
2023-08-25T04:11:38.196Z,18.21
2023-08-25T04:14:05.048Z,18.20
2023-08-25T04:16:31.884Z,18.21
2023-08-25T04:18:59.901Z,18.23
2023-08-25T04:21:27.965Z,18.23
2023-08-25T04:23:54.812Z,18.27
2023-08-25T04:26:21.907Z,18.31
2023-08-25T04:28:48.766Z,18.36
2023-08-25T04:31:15.659Z,18.38
2023-08-25T04:33:43.112Z,18.37
2023-08-25T04:36:10.211Z,18.37
2023-08-25T04:38:36.976Z,18.41
2023-08-25T04:41:03.715Z,18.37
2023-08-25T04:43:30.585Z,18.30
2023-08-25T04:45:57.598Z,18.36
2023-08-25T04:48:24.493Z,18.24
2023-08-25T04:50:51.574Z,18.26
2023-08-25T04:53:18.304Z,18.29
2023-08-25T04:55:45.254Z,18.29
2023-08-25T04:58:12.079Z,18.33
2023-08-25T05:00:38.976Z,18.33
2023-08-25T05:03:08.714Z,18.36
2023-08-25T05:05:35.733Z,18.41
2023-08-25T05:08:02.768Z,18.50
2023-08-25T05:10:29.598Z,18.51
2023-08-25T05:12:56.942Z,18.50
2023-08-25T05:15:23.754Z,18.57
2023-08-25T05:17:50.628Z,18.61
2023-08-25T05:20:20.204Z,18.45
2023-08-25T05:22:47.004Z,18.47
2023-08-25T05:25:13.964Z,18.50
2023-08-25T05:27:40.890Z,18.57
2023-08-25T05:30:08.213Z,18.64
2023-08-25T05:32:35.223Z,18.63
2023-08-25T05:35:02.997Z,18.67
2023-08-25T05:37:29.789Z,18.68
2023-08-25T05:39:56.725Z,18.78
2023-08-25T05:42:28.370Z,18.77
2023-08-25T05:44:56.119Z,18.80
2023-08-25T05:47:23.428Z,18.80
2023-08-25T05:49:50.677Z,18.81
2023-08-25T05:52:18.120Z,18.84
2023-08-25T05:54:44.928Z,19.08
2023-08-25T05:57:11.798Z,19.23
2023-08-25T05:59:38.793Z,19.28
2023-08-25T06:02:06.421Z,19.30
2023-08-25T06:04:33.237Z,19.35
2023-08-25T06:06:59.982Z,19.50
2023-08-25T06:09:26.855Z,19.54
2023-08-25T06:11:55.116Z,19.63
2023-08-25T06:14:22.027Z,19.63
2023-08-25T06:16:48.921Z,19.60
2023-08-25T06:19:16.320Z,19.49
2023-08-25T06:21:43.176Z,19.43
2023-08-25T06:24:11.412Z,19.61
2023-08-25T06:26:39.327Z,19.61
2023-08-25T06:33:41.291Z,19.53
2023-08-25T06:36:08.120Z,19.63
2023-08-25T06:38:42.586Z,19.67
2023-08-25T06:41:13.063Z,19.74
2023-08-25T06:43:39.978Z,19.68
2023-08-25T06:46:06.887Z,19.66
2023-08-25T06:48:33.676Z,19.68
2023-08-25T06:51:00.506Z,19.64
2023-08-25T06:53:27.444Z,19.61
2023-08-25T06:55:54.470Z,19.68
2023-08-25T06:58:21.337Z,19.77
2023-08-25T07:00:48.817Z,19.78
2023-08-25T07:03:15.786Z,19.78
2023-08-25T07:05:42.672Z,19.82
2023-08-25T07:08:09.450Z,20.01
2023-08-25T07:10:37.322Z,20.05
2023-08-25T07:13:04.332Z,20.28
2023-08-25T07:15:31.161Z,20.32
2023-08-25T07:17:58.140Z,20.11
2023-08-25T07:20:25.025Z,20.08
2023-08-25T07:22:51.714Z,20.01
2023-08-25T07:25:18.529Z,19.87
2023-08-25T07:27:45.487Z,19.82
2023-08-25T07:30:12.981Z,19.85
2023-08-25T07:32:39.803Z,19.92
2023-08-25T07:35:07.310Z,19.97
2023-08-25T07:37:34.226Z,20.12
2023-08-25T07:40:01.035Z,20.15
2023-08-25T07:42:28.424Z,20.29
2023-08-25T07:44:55.245Z,20.33
2023-08-25T07:47:22.014Z,20.39
2023-08-25T07:49:48.790Z,20.70
2023-08-25T07:52:15.689Z,21.11
2023-08-25T07:54:42.586Z,21.04
2023-08-25T07:57:09.315Z,20.98
2023-08-25T07:59:36.259Z,21.10
2023-08-25T08:02:05.061Z,21.39
2023-08-25T08:04:33.444Z,21.38
2023-08-25T08:07:03.466Z,21.08
2023-08-25T08:09:30.363Z,20.80
2023-08-25T08:11:57.675Z,20.75
2023-08-25T08:14:35.895Z,20.63
2023-08-25T08:17:11.724Z,20.69
2023-08-25T08:19:38.740Z,20.76
2023-08-25T08:22:05.650Z,20.56
2023-08-25T08:24:49.060Z,20.50
2023-08-25T08:27:21.403Z,20.43
2023-08-25T08:29:48.835Z,20.30
2023-08-25T08:32:15.742Z,20.18
2023-08-25T08:34:42.561Z,20.00
2023-08-25T08:37:09.262Z,19.95
2023-08-25T08:39:38.887Z,19.63
2023-08-25T08:42:09.013Z,19.57
2023-08-25T08:44:40.139Z,19.54
2023-08-25T08:47:07.997Z,19.70
2023-08-25T08:49:35.388Z,19.77
2023-08-25T08:52:03.106Z,19.67
2023-08-25T08:54:30.162Z,19.53
2023-08-25T08:56:56.897Z,19.42
2023-08-25T08:59:24.311Z,19.33
2023-08-25T09:01:51.317Z,19.22
2023-08-25T09:04:21.337Z,19.05
2023-08-25T09:06:52.523Z,19.16
2023-08-25T09:09:20.917Z,19.90
2023-08-25T09:11:51.277Z,20.07
2023-08-25T09:14:29.227Z,20.50
2023-08-25T09:17:03.901Z,20.79
2023-08-25T09:19:32.114Z,20.91
2023-08-25T09:21:59.868Z,21.38
2023-08-25T09:24:27.093Z,21.89
2023-08-25T09:26:53.916Z,22.14
2023-08-25T09:29:20.895Z,22.67
2023-08-25T09:31:47.696Z,22.44
2023-08-25T09:34:15.779Z,22.45
2023-08-25T09:36:55.700Z,22.20
2023-08-25T09:39:23.373Z,22.09
2023-08-25T09:41:50.877Z,21.82
2023-08-25T09:44:18.060Z,21.65
2023-08-25T09:46:45.929Z,21.31
2023-08-25T09:49:14.906Z,21.20
2023-08-25T09:51:46.888Z,21.01
2023-08-25T09:54:17.753Z,20.96
2023-08-25T09:56:46.844Z,21.03
2023-08-25T09:59:15.328Z,21.08
2023-08-25T10:01:44.123Z,21.18
2023-08-25T10:04:11.765Z,21.06
2023-08-25T10:06:39.940Z,21.11
2023-08-25T10:09:08.173Z,21.11
2023-08-25T10:11:43.123Z,21.31
2023-08-25T10:14:13.357Z,21.31
2023-08-25T10:16:54.158Z,21.28
2023-08-25T10:19:28.426Z,21.56
2023-08-25T10:21:57.098Z,21.69
2023-08-25T10:24:30.072Z,21.45
2023-08-25T10:26:57.592Z,21.32
2023-08-25T10:29:25.272Z,21.48
2023-08-25T10:31:58.518Z,21.39
2023-08-25T10:34:45.028Z,21.24
2023-08-25T10:37:12.930Z,20.94
2023-08-25T10:39:54.294Z,20.96
2023-08-25T10:42:27.138Z,20.94
2023-08-25T10:45:04.893Z,20.79
2023-08-25T10:47:32.333Z,20.57
2023-08-25T10:50:04.978Z,20.59
2023-08-25T10:52:32.759Z,20.43
2023-08-25T10:55:33.833Z,20.12
2023-08-25T10:58:04.774Z,20.07
2023-08-25T11:00:37.945Z,19.81
2023-08-25T11:03:05.986Z,20.01
2023-08-25T11:05:35.991Z,20.08
2023-08-25T11:08:07.028Z,19.91
2023-08-25T11:10:35.778Z,19.84
2023-08-25T11:13:10.611Z,20.02
2023-08-25T11:15:39.741Z,20.29
2023-08-25T11:18:09.938Z,20.35
2023-08-25T11:20:45.260Z,20.48
2023-08-25T11:23:20.120Z,20.57
2023-08-25T11:25:48.058Z,20.49
2023-08-25T11:28:15.115Z,20.76
2023-08-25T11:30:42.070Z,20.97
2023-08-25T11:33:10.623Z,20.76
2023-08-25T11:35:37.594Z,20.93
2023-08-25T11:38:04.937Z,21.17
2023-08-25T11:40:31.961Z,21.24
2023-08-25T11:42:58.957Z,21.25
2023-08-25T11:45:29.952Z,21.14
2023-08-25T11:47:57.614Z,21.03
2023-08-25T11:50:26.324Z,20.97
2023-08-25T11:52:59.912Z,21.10
2023-08-25T11:55:34.650Z,21.21
2023-08-25T11:58:09.787Z,21.27
2023-08-25T12:00:40.287Z,21.00
2023-08-25T12:03:07.858Z,20.94
2023-08-25T12:05:36.744Z,21.30
2023-08-25T12:08:04.410Z,21.56
2023-08-25T12:10:38.193Z,21.62
2023-08-25T12:13:05.195Z,21.65
2023-08-25T12:15:46.794Z,21.46
2023-08-25T12:18:14.483Z,21.46
2023-08-25T12:20:45.683Z,21.49
2023-08-25T12:23:12.710Z,21.48
2023-08-25T12:25:39.623Z,21.69
2023-08-25T12:28:06.845Z,22.09
2023-08-25T12:30:33.824Z,22.53
2023-08-25T12:33:00.821Z,22.37
2023-08-25T12:35:27.918Z,22.50
2023-08-25T12:37:55.129Z,22.39
2023-08-25T12:40:22.080Z,22.47
2023-08-25T12:42:51.637Z,22.51
2023-08-25T12:45:19.037Z,22.40
2023-08-25T12:47:46.211Z,22.41
2023-08-25T12:50:13.079Z,22.17
2023-08-25T12:52:40.050Z,22.14
2023-08-25T12:55:19.617Z,22.16
2023-08-25T12:57:48.159Z,22.12
2023-08-25T13:00:15.185Z,21.99
2023-08-25T13:02:42.152Z,22.19
2023-08-25T13:05:11.189Z,22.24
2023-08-25T13:07:42.201Z,22.08
2023-08-25T13:10:09.870Z,22.16
2023-08-25T13:12:37.466Z,22.04
2023-08-25T13:15:04.798Z,22.14
2023-08-25T13:17:31.783Z,22.12
2023-08-25T13:19:58.616Z,22.17
2023-08-25T13:22:25.467Z,22.19
2023-08-25T13:24:52.339Z,22.39
2023-08-25T13:27:19.489Z,22.47
2023-08-25T13:29:46.314Z,22.33
2023-08-25T13:32:13.514Z,22.36
2023-08-25T13:34:40.506Z,22.45
2023-08-25T13:37:07.480Z,22.72
2023-08-25T13:39:36.299Z,22.94
2023-08-25T13:42:03.160Z,23.39
2023-08-25T13:44:34.342Z,23.59
2023-08-25T13:47:02.124Z,23.60
2023-08-25T13:49:29.107Z,23.83
2023-08-25T13:51:55.920Z,24.14
2023-08-25T13:54:23.258Z,24.18
2023-08-25T13:56:50.350Z,24.47
2023-08-25T13:59:17.545Z,25.12
2023-08-25T14:01:44.401Z,25.36
2023-08-25T14:04:11.233Z,24.86
2023-08-25T14:06:38.029Z,24.80
2023-08-25T14:09:06.223Z,24.68
2023-08-25T14:11:33.107Z,24.72
2023-08-25T14:14:00.331Z,24.83
2023-08-25T14:16:27.416Z,25.16
2023-08-25T14:18:54.140Z,25.58
2023-08-25T14:21:21.342Z,25.15
2023-08-25T14:23:48.086Z,25.54
2023-08-25T14:26:14.961Z,24.85
2023-08-25T14:28:42.024Z,24.75
2023-08-25T14:31:09.026Z,24.87
2023-08-25T14:33:35.905Z,24.48
2023-08-25T14:36:02.821Z,24.38
2023-08-25T14:38:29.622Z,24.22
2023-08-25T14:40:56.564Z,23.65
2023-08-25T14:43:23.302Z,23.54
2023-08-25T14:45:50.182Z,23.62
2023-08-25T14:48:17.050Z,23.59
2023-08-25T14:50:43.898Z,23.66
2023-08-25T14:53:11.960Z,23.89
2023-08-25T14:55:38.871Z,23.73
2023-08-25T14:58:05.672Z,23.93
2023-08-25T15:00:32.573Z,23.79
2023-08-25T15:03:00.722Z,23.89
2023-08-25T15:05:27.761Z,23.76
2023-08-25T15:07:54.838Z,23.81
2023-08-25T15:10:22.284Z,23.77
2023-08-25T15:12:49.272Z,23.89
2023-08-25T15:15:16.204Z,23.76
2023-08-25T15:17:43.087Z,23.79
2023-08-25T15:20:10.411Z,23.62
2023-08-25T15:22:37.131Z,23.56
2023-08-25T15:25:05.407Z,23.45
2023-08-25T15:27:32.445Z,23.67
2023-08-25T15:29:59.274Z,23.81
2023-08-25T15:32:26.100Z,24.00
2023-08-25T15:34:52.931Z,24.02
2023-08-25T15:37:20.025Z,23.90
2023-08-25T15:39:46.958Z,24.34
2023-08-25T15:42:15.812Z,24.07
2023-08-25T15:44:43.462Z,24.18
2023-08-25T15:47:10.297Z,23.96
2023-08-25T15:49:37.294Z,24.07
2023-08-25T15:52:04.621Z,23.81
2023-08-25T15:54:31.267Z,23.43
2023-08-25T15:56:58.048Z,23.23
2023-08-25T15:59:25.187Z,23.16
2023-08-25T16:01:52.582Z,22.92
2023-08-25T16:04:19.360Z,22.51
2023-08-25T16:06:46.156Z,22.33
2023-08-25T16:09:13.493Z,22.22
2023-08-25T16:11:40.974Z,22.26
2023-08-25T16:14:07.917Z,22.45
2023-08-25T16:16:34.822Z,22.44
2023-08-25T16:19:01.755Z,22.64
2023-08-25T16:21:28.626Z,22.61
2023-08-25T16:23:55.442Z,22.71
2023-08-25T16:26:22.318Z,22.54
2023-08-25T16:28:49.665Z,22.19
2023-08-25T16:31:17.006Z,21.93
2023-08-25T16:33:44.186Z,21.93
2023-08-25T16:36:13.672Z,21.89
2023-08-25T16:38:40.573Z,21.79
2023-08-25T16:41:08.934Z,21.52
2023-08-25T16:43:35.818Z,21.51
2023-08-25T16:46:04.596Z,21.45
2023-08-25T16:48:31.930Z,21.52
2023-08-25T16:50:58.704Z,21.45
2023-08-25T16:53:25.568Z,21.37
2023-08-25T16:55:52.420Z,21.32
2023-08-25T16:58:19.448Z,21.46
2023-08-25T17:00:49.425Z,21.55
2023-08-25T17:03:16.435Z,21.54
2023-08-25T17:05:43.304Z,21.68
2023-08-25T17:08:10.155Z,21.64
2023-08-25T17:10:37.447Z,21.83
2023-08-25T17:13:04.509Z,21.99
2023-08-25T17:15:37.985Z,21.65
2023-08-25T17:18:06.304Z,21.55
2023-08-25T17:20:33.439Z,21.61
2023-08-25T17:23:00.595Z,21.51
2023-08-25T17:25:27.435Z,21.55
2023-08-25T17:27:55.089Z,21.54
2023-08-25T17:30:22.237Z,21.54
2023-08-25T17:32:49.149Z,21.52
2023-08-25T17:35:16.075Z,21.52
2023-08-25T17:37:42.988Z,21.54
2023-08-25T17:40:10.042Z,21.48
2023-08-25T17:42:36.845Z,21.49
2023-08-25T17:45:03.958Z,21.49
2023-08-25T17:47:31.176Z,21.46
2023-08-25T17:49:58.108Z,21.41
2023-08-25T17:52:25.006Z,21.54
2023-08-25T17:58:40.715Z,21.44
2023-08-25T18:01:08.870Z,21.61
2023-08-25T18:03:40.170Z,21.64
2023-08-25T18:06:07.412Z,21.71
2023-08-25T18:08:37.081Z,21.55
2023-08-25T18:11:04.133Z,21.65
2023-08-25T18:13:32.091Z,21.71
2023-08-25T18:15:59.636Z,21.72
2023-08-25T18:18:26.776Z,21.71
2023-08-25T18:21:02.346Z,21.58
2023-08-25T18:23:31.893Z,21.64
2023-08-25T18:25:59.157Z,21.49
2023-08-25T18:28:26.175Z,21.54
2023-08-25T18:31:01.656Z,21.58
2023-08-25T18:33:29.406Z,21.59
2023-08-25T18:35:57.178Z,21.66
2023-08-25T18:38:24.139Z,21.61
2023-08-25T18:40:51.161Z,21.75
2023-08-25T18:43:18.015Z,21.85
2023-08-25T18:45:44.817Z,21.88
2023-08-25T18:48:11.716Z,21.83
2023-08-25T18:50:38.568Z,21.76
2023-08-25T18:53:05.428Z,21.72
2023-08-25T18:55:32.298Z,21.81
2023-08-25T18:57:59.147Z,21.81
2023-08-25T19:00:25.992Z,21.88
2023-08-25T19:02:53.139Z,21.88
2023-08-25T19:05:21.218Z,21.82
2023-08-25T19:07:48.304Z,21.79
2023-08-25T19:10:20.505Z,21.78
2023-08-25T19:12:50.757Z,21.76
2023-08-25T19:15:17.628Z,21.78
2023-08-25T19:17:44.452Z,21.71
2023-08-25T19:20:17.093Z,21.66
2023-08-25T19:22:43.853Z,21.65
2023-08-25T19:25:10.630Z,21.64
2023-08-25T19:27:37.358Z,21.54
2023-08-25T19:30:04.667Z,21.51
2023-08-25T19:32:31.583Z,21.46
2023-08-25T19:34:58.586Z,21.46
2023-08-25T19:37:26.383Z,21.48
2023-08-25T19:39:53.863Z,21.37
2023-08-25T19:42:20.854Z,21.34
2023-08-25T19:44:50.406Z,21.34
2023-08-25T19:47:17.532Z,21.28
2023-08-25T19:49:44.411Z,21.18
2023-08-25T19:52:11.884Z,21.23
2023-08-25T19:54:38.988Z,21.18
2023-08-25T19:57:06.263Z,21.11
2023-08-25T19:59:33.967Z,21.03
2023-08-25T20:02:01.950Z,20.87
2023-08-25T20:04:28.918Z,20.93
2023-08-25T20:06:55.799Z,20.93
2023-08-25T20:09:23.216Z,20.79
2023-08-25T20:11:50.025Z,20.69
2023-08-25T20:14:16.792Z,20.63
2023-08-25T20:16:43.710Z,20.76
2023-08-25T20:19:10.576Z,20.62
2023-08-25T20:21:37.755Z,20.48
2023-08-25T20:24:04.911Z,20.52
2023-08-25T20:26:31.718Z,20.55
2023-08-25T20:29:00.078Z,20.53
2023-08-25T20:31:27.004Z,20.52
2023-08-25T20:33:53.822Z,20.36
2023-08-25T20:36:20.573Z,20.42
2023-08-25T20:38:49.482Z,20.39
2023-08-25T20:41:16.256Z,20.17
2023-08-25T20:43:43.070Z,20.15
2023-08-25T20:46:17.935Z,20.02
2023-08-25T20:48:50.574Z,20.04
2023-08-25T20:51:23.254Z,20.09
2023-08-25T20:53:51.458Z,20.09
2023-08-25T20:56:21.322Z,20.14
2023-08-25T20:58:48.375Z,20.07
2023-08-25T21:01:15.188Z,20.19
2023-08-25T21:03:42.191Z,20.11
2023-08-25T21:06:09.143Z,20.28
2023-08-25T21:08:36.579Z,20.36
2023-08-25T21:11:03.433Z,20.53
2023-08-25T21:13:30.230Z,20.60
2023-08-25T21:15:58.723Z,20.66
2023-08-25T21:18:25.625Z,20.65
2023-08-25T21:20:54.515Z,20.67
2023-08-25T21:23:22.623Z,20.63
2023-08-25T21:25:57.341Z,20.62
2023-08-25T21:28:26.341Z,20.66
2023-08-25T21:31:03.148Z,20.56
2023-08-25T21:33:32.621Z,20.62
2023-08-25T21:35:59.435Z,20.59
2023-08-25T21:38:26.248Z,20.53
2023-08-25T21:40:53.122Z,20.48
2023-08-25T21:43:19.862Z,20.50
2023-08-25T21:45:48.159Z,20.42
2023-08-25T21:48:15.498Z,20.43
2023-08-25T21:50:47.258Z,20.49
2023-08-25T21:53:14.104Z,20.48
2023-08-25T21:55:41.605Z,20.53
2023-08-25T21:58:08.845Z,20.55
2023-08-25T22:00:35.869Z,20.52
2023-08-25T22:03:03.799Z,20.53
2023-08-25T22:05:30.806Z,20.48
2023-08-25T22:07:57.777Z,20.50
2023-08-25T22:10:24.729Z,20.49
2023-08-25T22:12:54.663Z,20.49
2023-08-25T22:15:22.457Z,20.45
2023-08-25T22:17:49.279Z,20.38
2023-08-25T22:20:16.077Z,20.38
2023-08-25T22:22:42.880Z,20.39
2023-08-25T22:25:10.293Z,20.33
2023-08-25T22:27:37.912Z,20.36
2023-08-25T22:30:05.546Z,20.30
2023-08-25T22:35:03.298Z,20.29
2023-08-25T22:37:30.237Z,20.24
2023-08-25T22:39:56.992Z,20.15
2023-08-25T22:42:23.721Z,20.22
2023-08-25T22:44:50.481Z,20.17
2023-08-25T22:47:17.441Z,20.24
2023-08-25T22:49:44.302Z,20.18
2023-08-25T22:52:11.793Z,20.24
2023-08-25T22:54:38.660Z,20.26
2023-08-25T22:57:05.621Z,20.15
2023-08-25T22:59:32.459Z,20.18
2023-08-25T23:02:00.722Z,20.22
2023-08-25T23:04:27.674Z,20.08
2023-08-25T23:06:54.529Z,20.12
2023-08-25T23:09:21.890Z,20.07
2023-08-25T23:11:49.943Z,20.02
2023-08-25T23:14:16.808Z,20.00
2023-08-25T23:16:43.621Z,20.00
2023-08-25T23:19:12.276Z,19.95
2023-08-25T23:21:40.867Z,19.87
2023-08-25T23:24:07.889Z,19.87
2023-08-25T23:26:36.361Z,19.80
2023-08-25T23:29:03.479Z,19.71
2023-08-25T23:31:30.427Z,19.53
2023-08-25T23:33:57.440Z,19.59
2023-08-25T23:36:24.306Z,19.57
2023-08-25T23:38:51.021Z,19.53
2023-08-25T23:41:17.764Z,19.60
2023-08-25T23:43:44.820Z,19.53
2023-08-25T23:46:11.603Z,19.54
2023-08-25T23:48:38.449Z,19.51
2023-08-25T23:51:05.219Z,19.51
2023-08-25T23:53:32.263Z,19.46
2023-08-25T23:55:59.231Z,19.42
